sensor_id;sensor_type;location;lat;lon;timestamp;pressure;altitude;pressure_sealevel;temperature;humidity
35878;BME280;21982;49.804;24.072;2024-01-15T00:00:39;95595.53;;;0.17;64.60
35878;BME280;21982;49.804;24.072;2024-01-15T00:03:04;95583.34;;;0.02;64.85
35878;BME280;21982;49.804;24.072;2024-01-15T00:05:30;95586.59;;;0.12;64.53
35878;BME280;21982;49.804;24.072;2024-01-15T00:07:55;95559.09;;;0.01;64.87
35878;BME280;21982;49.804;24.072;2024-01-15T00:10:21;95599.56;;;0.28;64.95
35878;BME280;21982;49.804;24.072;2024-01-15T00:12:46;95605.09;;;0.33;64.59
35878;BME280;21982;49.804;24.072;2024-01-15T00:15:11;95609.00;;;0.29;64.48
35878;BME280;21982;49.804;24.072;2024-01-15T00:17:38;95600.22;;;0.30;64.61
35878;BME280;21982;49.804;24.072;2024-01-15T00:20:04;95591.44;;;0.23;64.67
35878;BME280;21982;49.804;24.072;2024-01-15T00:22:30;95591.44;;;0.31;64.50
35878;BME280;21982;49.804;24.072;2024-01-15T00:24:56;95592.69;;;0.35;64.63
35878;BME280;21982;49.804;24.072;2024-01-15T00:27:21;95592.09;;;0.33;64.41
35878;BME280;21982;49.804;24.072;2024-01-15T00:29:47;95589.31;;;0.35;64.08
35878;BME280;21982;49.804;24.072;2024-01-15T00:32:13;95584.72;;;0.37;64.48
35878;BME280;21982;49.804;24.072;2024-01-15T00:34:39;95589.13;;;0.36;64.35
35878;BME280;21982;49.804;24.072;2024-01-15T00:37:04;95535.53;;;0.03;64.34
35878;BME280;21982;49.804;24.072;2024-01-15T00:39:32;95434.06;;;-0.53;64.49
35878;BME280;21982;49.804;24.072;2024-01-15T00:41:57;95578.72;;;0.36;64.20
35878;BME280;21982;49.804;24.072;2024-01-15T00:44:23;95575.47;;;0.34;64.03
35878;BME280;21982;49.804;24.072;2024-01-15T00:46:48;95556.63;;;0.24;64.58
35878;BME280;21982;49.804;24.072;2024-01-15T00:49:14;95557.94;;;0.28;64.53
35878;BME280;21982;49.804;24.072;2024-01-15T00:51:39;95564.72;;;0.37;64.13
35878;BME280;21982;49.804;24.072;2024-01-15T00:54:05;95557.88;;;0.36;64.18
35878;BME280;21982;49.804;24.072;2024-01-15T00:56:31;95553.84;;;0.33;64.39
35878;BME280;21982;49.804;24.072;2024-01-15T00:58:56;95572.88;;;0.34;64.58
35878;BME280;21982;49.804;24.072;2024-01-15T01:01:22;95550.06;;;0.36;64.66
35878;BME280;21982;49.804;24.072;2024-01-15T01:03:47;95551.03;;;0.35;63.99
35878;BME280;21982;49.804;24.072;2024-01-15T01:06:12;95537.25;;;0.35;64.23
35878;BME280;21982;49.804;24.072;2024-01-15T01:08:38;95473.78;;;-0.12;64.28
35878;BME280;21982;49.804;24.072;2024-01-15T01:11:04;95530.22;;;0.35;64.36
35878;BME280;21982;49.804;24.072;2024-01-15T01:13:31;95533.47;;;0.37;64.56
35878;BME280;21982;49.804;24.072;2024-01-15T01:15:56;95523.22;;;0.36;64.20
35878;BME280;21982;49.804;24.072;2024-01-15T01:18:24;95494.50;;;0.13;64.57
35878;BME280;21982;49.804;24.072;2024-01-15T01:20:49;95523.88;;;0.38;64.76
35878;BME280;21982;49.804;24.072;2024-01-15T01:23:14;95527.44;;;0.37;64.53
35878;BME280;21982;49.804;24.072;2024-01-15T01:25:40;95493.84;;;0.19;64.23
35878;BME280;21982;49.804;24.072;2024-01-15T01:28:05;95511.00;;;0.36;64.49
35878;BME280;21982;49.804;24.072;2024-01-15T01:30:31;95489.47;;;0.19;64.60
35878;BME280;21982;49.804;24.072;2024-01-15T01:32:56;95502.22;;;0.37;64.10
35878;BME280;21982;49.804;24.072;2024-01-15T01:35:22;95473.97;;;0.26;63.99
35878;BME280;21982;49.804;24.072;2024-01-15T01:37:48;95497.03;;;0.37;64.22
35878;BME280;21982;49.804;24.072;2024-01-15T01:40:13;95497.84;;;0.38;64.45
35878;BME280;21982;49.804;24.072;2024-01-15T01:42:39;95424.53;;;-0.13;63.83
35878;BME280;21982;49.804;24.072;2024-01-15T01:45:05;95471.06;;;0.21;63.86
35878;BME280;21982;49.804;24.072;2024-01-15T01:47:31;95407.59;;;-0.09;63.71
35878;BME280;21982;49.804;24.072;2024-01-15T01:49:57;95486.91;;;0.42;63.92
35878;BME280;21982;49.804;24.072;2024-01-15T01:52:23;95490.31;;;0.43;64.03
35878;BME280;21982;49.804;24.072;2024-01-15T01:54:49;95477.47;;;0.41;64.02
35878;BME280;21982;49.804;24.072;2024-01-15T01:57:16;95411.31;;;-0.04;63.69
35878;BME280;21982;49.804;24.072;2024-01-15T01:59:44;95470.34;;;0.35;63.72
35878;BME280;21982;49.804;24.072;2024-01-15T02:02:11;95467.75;;;0.35;63.98
35878;BME280;21982;49.804;24.072;2024-01-15T02:04:36;95475.50;;;0.43;64.13
35878;BME280;21982;49.804;24.072;2024-01-15T02:07:03;95398.66;;;-0.07;63.34
35878;BME280;21982;49.804;24.072;2024-01-15T02:09:29;95477.78;;;0.46;63.87
35878;BME280;21982;49.804;24.072;2024-01-15T02:11:54;95392.41;;;0.03;63.75
35878;BME280;21982;49.804;24.072;2024-01-15T02:14:20;95440.78;;;0.28;63.27
35878;BME280;21982;49.804;24.072;2024-01-15T02:16:46;95469.00;;;0.47;63.68
35878;BME280;21982;49.804;24.072;2024-01-15T02:19:18;95456.28;;;0.52;62.85
35878;BME280;21982;49.804;24.072;2024-01-15T02:21:44;95444.94;;;0.37;63.45
35878;BME280;21982;49.804;24.072;2024-01-15T02:24:10;95409.06;;;0.24;62.83
35878;BME280;21982;49.804;24.072;2024-01-15T02:26:37;95429.13;;;0.47;62.73
35878;BME280;21982;49.804;24.072;2024-01-15T02:29:04;95405.97;;;0.29;62.94
35878;BME280;21982;49.804;24.072;2024-01-15T02:31:30;95449.75;;;0.56;63.04
35878;BME280;21982;49.804;24.072;2024-01-15T02:33:55;95448.59;;;0.59;62.62
35878;BME280;21982;49.804;24.072;2024-01-15T02:36:21;95371.22;;;0.14;62.79
35878;BME280;21982;49.804;24.072;2024-01-15T02:38:46;95440.44;;;0.62;62.60
35878;BME280;21982;49.804;24.072;2024-01-15T02:41:11;95388.31;;;0.39;62.44
35878;BME280;21982;49.804;24.072;2024-01-15T02:43:40;95423.66;;;0.64;62.45
35878;BME280;21982;49.804;24.072;2024-01-15T02:46:05;95423.66;;;0.64;62.50
35878;BME280;21982;49.804;24.072;2024-01-15T02:48:31;95398.00;;;0.53;62.36
35878;BME280;21982;49.804;24.072;2024-01-15T02:50:57;95385.88;;;0.38;62.54
35878;BME280;21982;49.804;24.072;2024-01-15T02:53:23;95412.00;;;0.52;62.66
35878;BME280;21982;49.804;24.072;2024-01-15T02:55:48;95416.75;;;0.49;62.07
35878;BME280;21982;49.804;24.072;2024-01-15T02:58:14;95407.47;;;0.46;62.32
35878;BME280;21982;49.804;24.072;2024-01-15T03:00:39;95437.97;;;0.69;62.52
35878;BME280;21982;49.804;24.072;2024-01-15T03:03:05;95371.25;;;0.37;61.97
35878;BME280;21982;49.804;24.072;2024-01-15T03:05:30;95426.53;;;0.70;62.50
35878;BME280;21982;49.804;24.072;2024-01-15T03:07:55;95440.56;;;0.69;62.72
35878;BME280;21982;49.804;24.072;2024-01-15T03:10:21;95432.75;;;0.69;62.44
35878;BME280;21982;49.804;24.072;2024-01-15T03:12:46;95439.38;;;0.71;62.46
35878;BME280;21982;49.804;24.072;2024-01-15T03:15:12;95382.88;;;0.49;62.32
35878;BME280;21982;49.804;24.072;2024-01-15T03:17:37;95338.81;;;0.24;61.92
35878;BME280;21982;49.804;24.072;2024-01-15T03:20:03;95391.75;;;0.62;62.08
35878;BME280;21982;49.804;24.072;2024-01-15T03:22:29;95367.28;;;0.49;61.93
35878;BME280;21982;49.804;24.072;2024-01-15T03:24:54;95431.69;;;0.78;61.63
35878;BME280;21982;49.804;24.072;2024-01-15T03:27:20;95403.81;;;0.63;61.78
35878;BME280;21982;49.804;24.072;2024-01-15T03:29:45;95404.09;;;0.69;61.79
35878;BME280;21982;49.804;24.072;2024-01-15T03:32:10;95376.19;;;0.54;62.14
35878;BME280;21982;49.804;24.072;2024-01-15T03:34:36;95378.09;;;0.60;61.99
35878;BME280;21982;49.804;24.072;2024-01-15T03:37:01;95409.69;;;0.80;61.72
35878;BME280;21982;49.804;24.072;2024-01-15T03:39:27;95393.13;;;0.73;61.38
35878;BME280;21982;49.804;24.072;2024-01-15T03:41:52;95398.94;;;0.83;61.91
35878;BME280;21982;49.804;24.072;2024-01-15T03:44:18;95401.72;;;0.82;61.42
35878;BME280;21982;49.804;24.072;2024-01-15T03:46:43;95335.38;;;0.47;61.77
35878;BME280;21982;49.804;24.072;2024-01-15T03:49:09;95355.13;;;0.64;61.78
35878;BME280;21982;49.804;24.072;2024-01-15T03:51:34;95361.66;;;0.60;62.11
35878;BME280;21982;49.804;24.072;2024-01-15T03:53:59;95402.16;;;0.85;62.11
35878;BME280;21982;49.804;24.072;2024-01-15T03:56:25;95378.72;;;0.85;61.65
35878;BME280;21982;49.804;24.072;2024-01-15T03:58:50;95393.84;;;0.90;62.12
35878;BME280;21982;49.804;24.072;2024-01-15T04:01:15;95380.97;;;0.88;61.28
35878;BME280;21982;49.804;24.072;2024-01-15T04:03:41;95378.44;;;0.80;61.55
35878;BME280;21982;49.804;24.072;2024-01-15T04:06:06;95379.81;;;0.91;61.56
35878;BME280;21982;49.804;24.072;2024-01-15T04:08:32;95383.06;;;0.93;61.75
35878;BME280;21982;49.804;24.072;2024-01-15T04:10:57;95370.09;;;0.85;61.96
35878;BME280;21982;49.804;24.072;2024-01-15T04:13:22;95395.28;;;0.92;61.78
35878;BME280;21982;49.804;24.072;2024-01-15T04:15:48;95368.41;;;0.92;61.83
35878;BME280;21982;49.804;24.072;2024-01-15T04:18:15;95369.88;;;0.94;61.92
35878;BME280;21982;49.804;24.072;2024-01-15T04:20:41;95292.03;;;0.54;61.33
35878;BME280;21982;49.804;24.072;2024-01-15T04:23:06;95385.31;;;0.96;61.92
35878;BME280;21982;49.804;24.072;2024-01-15T04:25:31;95363.66;;;0.95;61.90
35878;BME280;21982;49.804;24.072;2024-01-15T04:27:57;95384.69;;;0.94;61.93
35878;BME280;21982;49.804;24.072;2024-01-15T04:30:22;95353.41;;;0.94;61.78
35878;BME280;21982;49.804;24.072;2024-01-15T04:32:48;95350.63;;;0.95;61.86
35878;BME280;21982;49.804;24.072;2024-01-15T04:35:13;95373.09;;;0.96;61.34
35878;BME280;21982;49.804;24.072;2024-01-15T04:37:41;95355.66;;;0.97;61.58
35878;BME280;21982;49.804;24.072;2024-01-15T04:40:08;95346.94;;;0.90;61.86
35878;BME280;21982;49.804;24.072;2024-01-15T04:42:34;95306.44;;;0.64;61.21
35878;BME280;21982;49.804;24.072;2024-01-15T04:44:59;95325.56;;;0.72;61.66
35878;BME280;21982;49.804;24.072;2024-01-15T04:47:25;95294.41;;;0.63;61.22
35878;BME280;21982;49.804;24.072;2024-01-15T04:49:50;95141.81;;;-0.36;61.19
35878;BME280;21982;49.804;24.072;2024-01-15T04:52:16;95339.56;;;0.93;61.43
35878;BME280;21982;49.804;24.072;2024-01-15T04:54:43;95306.44;;;0.64;61.07
35878;BME280;21982;49.804;24.072;2024-01-15T04:57:09;95336.44;;;0.98;60.76
35878;BME280;21982;49.804;24.072;2024-01-15T04:59:34;95337.06;;;1.00;61.02
35878;BME280;21982;49.804;24.072;2024-01-15T05:02:00;95333.84;;;0.98;61.38
35878;BME280;21982;49.804;24.072;2024-01-15T05:04:25;95335.81;;;0.96;61.16
35878;BME280;21982;49.804;24.072;2024-01-15T05:06:51;95315.03;;;0.88;60.85
35878;BME280;21982;49.804;24.072;2024-01-15T05:09:16;95340.03;;;0.97;60.85
35878;BME280;21982;49.804;24.072;2024-01-15T05:11:43;95320.25;;;0.88;60.87
35878;BME280;21982;49.804;24.072;2024-01-15T05:14:08;95326.19;;;0.96;61.11
35878;BME280;21982;49.804;24.072;2024-01-15T05:16:34;95315.94;;;0.95;61.00
35878;BME280;21982;49.804;24.072;2024-01-15T05:18:59;95332.22;;;0.97;61.25
35878;BME280;21982;49.804;24.072;2024-01-15T05:21:25;95323.94;;;0.93;60.64
35878;BME280;21982;49.804;24.072;2024-01-15T05:23:50;95326.09;;;0.90;60.81
35878;BME280;21982;49.804;24.072;2024-01-15T05:26:15;95274.28;;;0.57;60.79
35878;BME280;21982;49.804;24.072;2024-01-15T05:28:41;95309.47;;;0.91;61.08
35878;BME280;21982;49.804;24.072;2024-01-15T05:31:11;95286.25;;;0.66;60.25
35878;BME280;21982;49.804;24.072;2024-01-15T05:33:55;95320.88;;;0.90;60.95
35878;BME280;21982;49.804;24.072;2024-01-15T05:36:20;95314.03;;;0.89;60.44
35878;BME280;21982;49.804;24.072;2024-01-15T05:38:47;95319.25;;;0.89;60.89
35878;BME280;21982;49.804;24.072;2024-01-15T05:41:12;95327.06;;;0.89;60.61
35878;BME280;21982;49.804;24.072;2024-01-15T05:43:38;95322.84;;;0.88;60.51
35878;BME280;21982;49.804;24.072;2024-01-15T05:46:03;95280.75;;;0.61;60.34
35878;BME280;21982;49.804;24.072;2024-01-15T05:48:29;95314.75;;;0.83;60.97
35878;BME280;21982;49.804;24.072;2024-01-15T05:50:54;95277.22;;;0.54;60.84
35878;BME280;21982;49.804;24.072;2024-01-15T05:53:20;95318.16;;;0.83;60.86
35878;BME280;21982;49.804;24.072;2024-01-15T05:55:45;95324.53;;;0.81;61.14
35878;BME280;21982;49.804;24.072;2024-01-15T05:58:10;95283.88;;;0.57;60.69
35878;BME280;21982;49.804;24.072;2024-01-15T06:00:36;95307.97;;;0.74;61.06
35878;BME280;21982;49.804;24.072;2024-01-15T06:03:03;95319.38;;;0.73;61.12
35878;BME280;21982;49.804;24.072;2024-01-15T06:05:29;95310.94;;;0.71;60.37
35878;BME280;21982;49.804;24.072;2024-01-15T06:07:55;95302.88;;;0.65;60.54
35878;BME280;21982;49.804;24.072;2024-01-15T06:10:20;95272.31;;;0.37;60.72
35878;BME280;21982;49.804;24.072;2024-01-15T06:12:45;95303.56;;;0.59;60.39
35878;BME280;21982;49.804;24.072;2024-01-15T06:15:11;95289.31;;;0.47;60.55
35878;BME280;21982;49.804;24.072;2024-01-15T06:17:37;95314.97;;;0.58;60.86
35878;BME280;21982;49.804;24.072;2024-01-15T06:20:03;95274.75;;;0.38;60.98
35878;BME280;21982;49.804;24.072;2024-01-15T06:22:28;95233.81;;;0.09;61.08
35878;BME280;21982;49.804;24.072;2024-01-15T06:24:54;95273.94;;;0.38;60.75
35878;BME280;21982;49.804;24.072;2024-01-15T06:27:20;95306.16;;;0.59;60.67
35878;BME280;21982;49.804;24.072;2024-01-15T06:29:46;95304.38;;;0.60;60.38
35878;BME280;21982;49.804;24.072;2024-01-15T06:32:14;95252.38;;;0.29;60.76
35878;BME280;21982;49.804;24.072;2024-01-15T06:34:40;95293.31;;;0.58;60.66
35878;BME280;21982;49.804;24.072;2024-01-15T06:37:06;95256.19;;;0.41;60.37
35878;BME280;21982;49.804;24.072;2024-01-15T06:39:31;95258.53;;;0.51;59.96
35878;BME280;21982;49.804;24.072;2024-01-15T06:41:56;95289.09;;;0.72;60.28
35878;BME280;21982;49.804;24.072;2024-01-15T06:44:22;95290.22;;;0.77;60.02
35878;BME280;21982;49.804;24.072;2024-01-15T06:46:49;95262.81;;;0.66;60.17
35878;BME280;21982;49.804;24.072;2024-01-15T06:49:16;95205.91;;;0.41;60.45
35878;BME280;21982;49.804;24.072;2024-01-15T06:51:42;95219.13;;;0.54;59.98
35878;BME280;21982;49.804;24.072;2024-01-15T06:54:08;95256.16;;;0.79;59.99
35878;BME280;21982;49.804;24.072;2024-01-15T06:56:33;95214.22;;;0.59;60.21
35878;BME280;21982;49.804;24.072;2024-01-15T06:58:59;95255.47;;;0.85;59.99
35878;BME280;21982;49.804;24.072;2024-01-15T07:01:24;95223.91;;;0.65;59.57
35878;BME280;21982;49.804;24.072;2024-01-15T07:03:50;95268.69;;;0.98;59.85
35878;BME280;21982;49.804;24.072;2024-01-15T07:06:15;95261.31;;;1.02;59.55
35878;BME280;21982;49.804;24.072;2024-01-15T07:08:42;95214.38;;;0.72;59.29
35878;BME280;21982;49.804;24.072;2024-01-15T07:11:07;95169.13;;;0.58;59.45
35878;BME280;21982;49.804;24.072;2024-01-15T07:13:33;95257.91;;;1.16;59.73
35878;BME280;21982;49.804;24.072;2024-01-15T07:15:59;95257.28;;;1.28;59.90
35878;BME280;21982;49.804;24.072;2024-01-15T07:18:25;95211.34;;;1.13;59.52
35878;BME280;21982;49.804;24.072;2024-01-15T07:20:51;95161.94;;;0.90;59.45
35878;BME280;21982;49.804;24.072;2024-01-15T07:23:16;95202.63;;;1.20;59.50
35878;BME280;21982;49.804;24.072;2024-01-15T07:25:43;95241.59;;;1.58;58.90
35878;BME280;21982;49.804;24.072;2024-01-15T07:28:09;95251.41;;;1.56;59.58
35878;BME280;21982;49.804;24.072;2024-01-15T07:30:34;95254.72;;;1.50;59.21
35878;BME280;21982;49.804;24.072;2024-01-15T07:33:00;95216.66;;;1.19;58.98
35878;BME280;21982;49.804;24.072;2024-01-15T07:35:25;95202.97;;;1.17;59.60
35878;BME280;21982;49.804;24.072;2024-01-15T07:37:51;95244.66;;;1.47;59.50
35878;BME280;21982;49.804;24.072;2024-01-15T07:40:17;95136.16;;;0.95;58.96
35878;BME280;21982;49.804;24.072;2024-01-15T07:42:42;95241.34;;;1.74;59.59
35878;BME280;21982;49.804;24.072;2024-01-15T07:45:08;95244.50;;;1.84;59.29
35878;BME280;21982;49.804;24.072;2024-01-15T07:47:34;95221.63;;;1.86;58.56
35878;BME280;21982;49.804;24.072;2024-01-15T07:50:00;95183.38;;;1.72;58.94
35878;BME280;21982;49.804;24.072;2024-01-15T07:52:25;95207.72;;;2.00;58.73
35878;BME280;21982;49.804;24.072;2024-01-15T07:54:51;95233.47;;;2.25;58.08
35878;BME280;21982;49.804;24.072;2024-01-15T07:57:16;95237.13;;;2.30;57.96
35878;BME280;21982;49.804;24.072;2024-01-15T07:59:41;95184.59;;;1.97;58.48
35878;BME280;21982;49.804;24.072;2024-01-15T08:02:07;95250.59;;;2.55;58.13
35878;BME280;21982;49.804;24.072;2024-01-15T08:04:33;95227.66;;;2.79;57.98
35878;BME280;21982;49.804;24.072;2024-01-15T08:06:58;95223.41;;;2.78;57.45
35878;BME280;21982;49.804;24.072;2024-01-15T08:09:24;95204.53;;;2.76;57.67
35878;BME280;21982;49.804;24.072;2024-01-15T08:11:49;95190.22;;;2.72;57.07
35878;BME280;21982;49.804;24.072;2024-01-15T08:14:15;95226.22;;;3.04;57.15
35878;BME280;21982;49.804;24.072;2024-01-15T08:16:40;95161.94;;;2.82;57.55
35878;BME280;21982;49.804;24.072;2024-01-15T08:19:06;95216.44;;;3.19;56.77
35878;BME280;21982;49.804;24.072;2024-01-15T08:21:32;95201.94;;;3.17;56.64
35878;BME280;21982;49.804;24.072;2024-01-15T08:24:01;95225.34;;;3.31;56.55
35878;BME280;21982;49.804;24.072;2024-01-15T08:26:28;95220.50;;;3.28;56.54
35878;BME280;21982;49.804;24.072;2024-01-15T08:28:53;95212.09;;;3.33;56.53
35878;BME280;21982;49.804;24.072;2024-01-15T08:31:19;95163.63;;;2.96;56.64
35878;BME280;21982;49.804;24.072;2024-01-15T08:33:44;95207.44;;;3.28;56.04
35878;BME280;21982;49.804;24.072;2024-01-15T08:36:10;95217.72;;;3.30;56.00
35878;BME280;21982;49.804;24.072;2024-01-15T08:38:35;95211.66;;;3.29;56.20
35878;BME280;21982;49.804;24.072;2024-01-15T08:41:01;95212.44;;;3.23;56.20
35878;BME280;21982;49.804;24.072;2024-01-15T08:43:27;95210.72;;;3.02;56.29
35878;BME280;21982;49.804;24.072;2024-01-15T08:45:52;95214.75;;;3.05;56.02
35878;BME280;21982;49.804;24.072;2024-01-15T08:48:19;95195.47;;;3.06;56.44
35878;BME280;21982;49.804;24.072;2024-01-15T08:50:45;95181.78;;;3.04;56.30
35878;BME280;21982;49.804;24.072;2024-01-15T08:53:13;95210.50;;;3.39;55.94
35878;BME280;21982;49.804;24.072;2024-01-15T08:55:39;95086.69;;;2.71;55.59
35878;BME280;21982;49.804;24.072;2024-01-15T08:58:05;95214.59;;;3.54;55.33
35878;BME280;21982;49.804;24.072;2024-01-15T09:00:31;95200.19;;;3.78;55.32
35878;BME280;21982;49.804;24.072;2024-01-15T09:02:57;95140.31;;;3.55;54.96
35878;BME280;21982;49.804;24.072;2024-01-15T09:05:22;95176.03;;;3.76;55.10
35878;BME280;21982;49.804;24.072;2024-01-15T09:07:48;95231.22;;;3.94;55.09
35878;BME280;21982;49.804;24.072;2024-01-15T09:10:14;95197.41;;;3.99;54.75
35878;BME280;21982;49.804;24.072;2024-01-15T09:12:39;95207.09;;;4.06;55.06
35878;BME280;21982;49.804;24.072;2024-01-15T09:15:06;95213.56;;;4.10;54.44
35878;BME280;21982;49.804;24.072;2024-01-15T09:17:32;95193.78;;;4.00;54.55
35878;BME280;21982;49.804;24.072;2024-01-15T09:19:57;95209.94;;;4.11;54.83
35878;BME280;21982;49.804;24.072;2024-01-15T09:22:23;95178.66;;;3.89;54.63
35878;BME280;21982;49.804;24.072;2024-01-15T09:24:48;95201.06;;;4.05;54.41
35878;BME280;21982;49.804;24.072;2024-01-15T09:27:15;95188.75;;;3.99;54.57
35878;BME280;21982;49.804;24.072;2024-01-15T09:29:41;95177.81;;;3.82;54.22
35878;BME280;21982;49.804;24.072;2024-01-15T09:32:08;95171.19;;;3.73;54.66
35878;BME280;21982;49.804;24.072;2024-01-15T09:34:34;95113.94;;;3.44;54.57
35878;BME280;21982;49.804;24.072;2024-01-15T09:37:00;95166.19;;;3.98;54.28
35878;BME280;21982;49.804;24.072;2024-01-15T09:39:27;95143.84;;;4.09;54.18
35878;BME280;21982;49.804;24.072;2024-01-15T09:41:53;95184.97;;;4.41;54.15
35878;BME280;21982;49.804;24.072;2024-01-15T09:44:19;95184.75;;;4.36;53.64
35878;BME280;21982;49.804;24.072;2024-01-15T09:46:46;95162.19;;;4.28;53.84
35878;BME280;21982;49.804;24.072;2024-01-15T09:49:14;95174.69;;;4.40;54.13
35878;BME280;21982;49.804;24.072;2024-01-15T09:51:41;95176.47;;;4.52;53.72
35878;BME280;21982;49.804;24.072;2024-01-15T09:54:07;95155.53;;;4.46;53.88
35878;BME280;21982;49.804;24.072;2024-01-15T09:56:34;95119.47;;;4.15;53.53
35878;BME280;21982;49.804;24.072;2024-01-15T09:59:00;95174.47;;;4.54;53.30
35878;BME280;21982;49.804;24.072;2024-01-15T10:01:31;95156.94;;;4.42;53.03
35878;BME280;21982;49.804;24.072;2024-01-15T10:03:57;95128.34;;;4.14;53.11
35878;BME280;21982;49.804;24.072;2024-01-15T10:06:24;95133.38;;;4.09;52.94
35878;BME280;21982;49.804;24.072;2024-01-15T10:08:53;95137.78;;;4.01;53.43
35878;BME280;21982;49.804;24.072;2024-01-15T10:11:19;95137.38;;;4.18;53.59
35878;BME280;21982;49.804;24.072;2024-01-15T10:13:45;95099.53;;;4.14;53.09
35878;BME280;21982;49.804;24.072;2024-01-15T10:16:12;95130.31;;;4.58;52.82
35878;BME280;21982;49.804;24.072;2024-01-15T10:18:37;95138.16;;;4.84;52.45
35878;BME280;21982;49.804;24.072;2024-01-15T10:21:06;95154.25;;;4.94;51.90
35878;BME280;21982;49.804;24.072;2024-01-15T10:23:34;95063.41;;;4.49;51.97
35878;BME280;21982;49.804;24.072;2024-01-15T10:26:01;95126.22;;;4.88;52.25
35878;BME280;21982;49.804;24.072;2024-01-15T10:28:27;95138.50;;;4.94;52.18
35878;BME280;21982;49.804;24.072;2024-01-15T10:30:56;95127.19;;;5.07;51.89
35878;BME280;21982;49.804;24.072;2024-01-15T10:33:22;95149.97;;;5.58;51.43
35878;BME280;21982;49.804;24.072;2024-01-15T10:35:55;95119.19;;;5.78;50.96
35878;BME280;21982;49.804;24.072;2024-01-15T10:38:22;95124.28;;;5.66;50.89
35878;BME280;21982;49.804;24.072;2024-01-15T10:40:51;95127.91;;;5.72;50.93
35878;BME280;21982;49.804;24.072;2024-01-15T10:43:16;95088.44;;;5.54;50.79
35878;BME280;21982;49.804;24.072;2024-01-15T10:45:44;95135.78;;;5.72;50.41
35878;BME280;21982;49.804;24.072;2024-01-15T10:48:10;95120.63;;;5.74;50.28
35878;BME280;21982;49.804;24.072;2024-01-15T10:50:36;95126.47;;;5.76;50.50
35878;BME280;21982;49.804;24.072;2024-01-15T10:53:01;95115.19;;;5.69;50.62
35878;BME280;21982;49.804;24.072;2024-01-15T10:55:28;95142.59;;;5.80;50.19
35878;BME280;21982;49.804;24.072;2024-01-15T10:57:56;95124.44;;;5.78;50.38
35878;BME280;21982;49.804;24.072;2024-01-15T11:00:23;95127.72;;;5.67;49.73
35878;BME280;21982;49.804;24.072;2024-01-15T11:02:51;95130.97;;;5.62;50.23
35878;BME280;21982;49.804;24.072;2024-01-15T11:05:18;95091.31;;;5.39;50.27
35878;BME280;21982;49.804;24.072;2024-01-15T11:07:48;95136.72;;;5.46;50.13
35878;BME280;21982;49.804;24.072;2024-01-15T11:10:42;95123.66;;;5.26;49.60
35878;BME280;21982;49.804;24.072;2024-01-15T11:13:09;95099.56;;;4.98;50.29
35878;BME280;21982;49.804;24.072;2024-01-15T11:15:59;95114.47;;;5.11;50.49
35878;BME280;21982;49.804;24.072;2024-01-15T11:18:35;95102.56;;;5.01;50.21
35878;BME280;21982;49.804;24.072;2024-01-15T11:23:43;95084.91;;;4.84;50.79
35878;BME280;21982;49.804;24.072;2024-01-15T11:29:10;95094.00;;;4.75;50.22
35878;BME280;21982;49.804;24.072;2024-01-15T11:34:05;95104.09;;;4.58;50.87
35878;BME280;21982;49.804;24.072;2024-01-15T11:41:52;95005.47;;;3.73;51.33
35878;BME280;21982;49.804;24.072;2024-01-15T11:44:17;95105.75;;;4.39;51.17
35878;BME280;21982;49.804;24.072;2024-01-15T11:46:56;95069.31;;;4.11;51.22
35878;BME280;21982;49.804;24.072;2024-01-15T11:50:01;95078.53;;;4.20;51.35
35878;BME280;21982;49.804;24.072;2024-01-15T11:52:33;95113.59;;;4.26;51.21
35878;BME280;21982;49.804;24.072;2024-01-15T11:55:11;95114.63;;;4.25;51.19
35878;BME280;21982;49.804;24.072;2024-01-15T11:57:46;95052.97;;;3.69;51.57
35878;BME280;21982;49.804;24.072;2024-01-15T12:00:13;95113.22;;;4.09;51.56
35878;BME280;21982;49.804;24.072;2024-01-15T12:02:40;95116.44;;;4.18;51.94
35878;BME280;21982;49.804;24.072;2024-01-15T12:05:07;95112.41;;;4.22;51.81
35878;BME280;21982;49.804;24.072;2024-01-15T12:07:33;95112.41;;;4.22;51.85
35878;BME280;21982;49.804;24.072;2024-01-15T12:09:58;95080.97;;;3.95;51.36
35878;BME280;21982;49.804;24.072;2024-01-15T12:12:58;95114.81;;;4.17;51.61
35878;BME280;21982;49.804;24.072;2024-01-15T12:15:24;95114.03;;;4.10;51.54
35878;BME280;21982;49.804;24.072;2024-01-15T12:17:50;95070.72;;;3.74;51.71
35878;BME280;21982;49.804;24.072;2024-01-15T12:20:17;95086.81;;;3.84;52.00
35878;BME280;21982;49.804;24.072;2024-01-15T12:22:43;95006.66;;;3.30;51.66
35878;BME280;21982;49.804;24.072;2024-01-15T12:25:09;95120.06;;;4.03;51.85
35878;BME280;21982;49.804;24.072;2024-01-15T12:27:35;95051.56;;;3.67;52.22
35878;BME280;21982;49.804;24.072;2024-01-15T12:30:00;95064.88;;;3.79;51.68
35878;BME280;21982;49.804;24.072;2024-01-15T12:32:26;95044.53;;;3.67;51.51
35878;BME280;21982;49.804;24.072;2024-01-15T12:34:51;95093.09;;;4.10;51.51
35878;BME280;21982;49.804;24.072;2024-01-15T12:37:20;95114.81;;;4.36;51.17
35878;BME280;21982;49.804;24.072;2024-01-15T12:39:46;95012.09;;;3.62;51.39
35878;BME280;21982;49.804;24.072;2024-01-15T12:42:14;95057.41;;;3.95;51.78
35878;BME280;21982;49.804;24.072;2024-01-15T12:44:40;95109.59;;;4.30;51.62
35878;BME280;21982;49.804;24.072;2024-01-15T12:47:06;95130.75;;;4.42;51.29
35878;BME280;21982;49.804;24.072;2024-01-15T12:49:31;95133.75;;;4.32;51.19
35878;BME280;21982;49.804;24.072;2024-01-15T12:51:58;95098.31;;;4.03;51.39
35878;BME280;21982;49.804;24.072;2024-01-15T12:54:24;95125.28;;;4.17;51.56
35878;BME280;21982;49.804;24.072;2024-01-15T12:56:50;95135.19;;;4.15;51.83
35878;BME280;21982;49.804;24.072;2024-01-15T12:59:17;95131.34;;;4.04;51.43
35878;BME280;21982;49.804;24.072;2024-01-15T13:01:43;95109.34;;;3.85;51.88
35878;BME280;21982;49.804;24.072;2024-01-15T13:04:10;95144.66;;;4.09;51.65
35878;BME280;21982;49.804;24.072;2024-01-15T13:06:35;95125.53;;;4.15;51.50
35878;BME280;21982;49.804;24.072;2024-01-15T13:09:05;95148.88;;;4.30;51.55